Brush, Colorado
Current Conditions -  °F | °C
As of 3:55 AM on Thursday 23 Oct 2014 (Local Time) from KFMM Reporting Station
Clear Clear  
Wind Chill: 37°   Ceiling: Unl
Heat Index: 42°   Visibility: 10mi
Dew Point: 33°   Wind: 7mph
Humidity: 70%   Direction: 270°W
Pressure: 30.13"   Gusts: NA
Location:  40.26°N, 103.62°W
Report Text: KFMM 230955Z AUTO 27006KT 10SM CLR 05/00 A3013 RMK AO2 T00540003
Loading
Personal Weather Stations






























Interactive Weather Map
Tropical Storm Tracking
New forecast layout! Learn more

10-Day Weather Forecast

Advertisements
Track Severe Weather on mobile